Weatherford, TX (76085)

11:57 AM CDT on September 01, 2015 (GMT -0500)
Jamak | | Change Station
CLOSE
Current Station
Personal Weather Station
Location: Weatherford, TX
Elevation: 1056 ft
Nearby Weather Stations

Elev 1056 ft 32.78 °N, 97.81 °W | Updated 7 seconds ago

Clear
Clear
89.6 °F
Feels Like 86 °F
N
0.0
Wind Variable Wind from North
Gusts 0.0 mph

Today
High -- | Low -- °F
--% Chance of Precip.
Yesterday
High -- | Low -- °F
Precip. -- in
7:05 AM 7:56 PM
Waning Gibbous, 88% visible
Pressure 30.00 in
Visibility 10.0 miles
Clouds Clear
Heat Index 86 °F
Dew Point 39 °F
Humidity 17%
Rainfall 0.00 in
Snow Depth Not available.
UV 9 out of 12
Pollen 9.10 out of 12
Air Quality Not available.
Flu Activity Not available.
METAR KMWL 011653Z AUTO 18009KT 10SM CLR 30/20 A3004 RMK AO2 SLP157 T03000200
Pressure 30.00 in
Visibility 10.0 miles
Clouds Clear
Heat Index 86 °F
Dew Point 39 °F
Humidity 17%
Rainfall 0.00 in
Snow Depth Not available.
UV 9 out of 12
Pollen 9.10 out of 12
Air Quality Not available.
Flu Activity Not available.
METAR KMWL 011653Z AUTO 18009KT 10SM CLR 30/20 A3004 RMK AO2 SLP157 T03000200
Nowcast | as of 11:00 am CDT on September 1, 2015

Isolated to scattered showers and thunderstorms that were south of an Austin to Caldwell line at 11 am will continue to move north at 15 to 20 mph. Brief heavy rain and cloud to ground lightning will accompany some of the storms. Otherwise...expect mostly sunny skies with temperatures warming into the low to mid 90s by 3 PM.

×

10-Day Weather Forecast

×

Almanac

Astronomy

Sep. 01, 2015 Rise Set
Actual Time
Civil Twilight
Nautical Twilight
Astronomical Twilight
Moon
Length of Visible Light
Length of Day
Tomorrow will be .
, % of the Moon is Illuminated

Today's Extremes

State Highs State Lows

Community

WunderPhotos

Upload Photos

1,851,555 photos uploaded!

WunderBlogs® & News

Nearby

Air Quality

  Air Quality AQ Index Pollutant
Not available.

Snow Depth

Station Depth Elevation

Earthquake Activity

City Distance Mag. Time & Date
Minimum magnitude displayed is 2.5.

Coastal Water Temperatures

Place Temperature

Stations

Nearby Weather Stations

Station Location Temp. Windchill Dew Point Humidity Wind Precip. Elev Updated Type